createdAt,value
2018-09-12T00:02:47.072Z,5.30
2018-09-12T00:03:47.079Z,5.00
2018-09-12T00:05:42.526Z,5.60
2018-09-12T00:06:42.014Z,4.10
2018-09-12T00:08:37.952Z,4.20
2018-09-12T00:09:37.437Z,4.70
2018-09-12T00:11:33.364Z,4.80
2018-09-12T00:12:33.369Z,4.30
2018-09-12T00:14:29.316Z,5.30
2018-09-12T00:15:29.329Z,4.70
2018-09-12T00:17:25.311Z,4.00
2018-09-12T00:18:25.270Z,4.10
2018-09-12T00:20:21.748Z,4.50
2018-09-12T00:21:21.248Z,3.90
2018-09-12T00:23:23.726Z,5.20
2018-09-12T00:24:20.213Z,5.20
2018-09-12T00:26:15.329Z,5.90
2018-09-12T00:27:16.325Z,5.10
2018-09-12T00:29:09.801Z,4.40
2018-09-12T00:30:09.777Z,4.40
2018-09-12T00:32:06.243Z,5.10
2018-09-12T00:33:05.722Z,3.90
2018-09-12T00:35:01.653Z,5.10
2018-09-12T00:36:01.663Z,4.30
2018-09-12T00:37:58.635Z,7.00
2018-09-12T00:38:57.597Z,5.90
2018-09-12T00:40:54.579Z,6.10
2018-09-12T00:41:53.522Z,5.80
2018-09-12T00:43:49.492Z,4.30
2018-09-12T00:44:49.979Z,4.30
2018-09-12T00:46:47.423Z,4.80
2018-09-12T00:47:45.426Z,4.60
2018-09-12T00:49:39.865Z,4.70
2018-09-12T00:50:39.866Z,4.90
2018-09-12T00:52:35.824Z,4.70
2018-09-12T00:53:35.832Z,5.50
2018-09-12T00:55:30.234Z,5.30
2018-09-12T00:56:30.247Z,4.50
2018-09-12T01:02:53.809Z,4.80
2018-09-12T01:03:52.967Z,5.10
2018-09-12T01:05:48.917Z,5.90
2018-09-12T01:06:48.922Z,5.50
2018-09-12T01:08:46.805Z,4.90
2018-09-12T01:09:44.863Z,4.30
2018-09-12T01:11:42.837Z,4.70
2018-09-12T01:12:43.317Z,6.70
2018-09-12T01:14:37.721Z,5.80
2018-09-12T01:15:37.731Z,6.30
2018-09-12T01:17:32.754Z,5.70
2018-09-12T01:18:31.669Z,5.50
2018-09-12T01:20:26.115Z,4.40
2018-09-12T01:21:26.107Z,5.20
2018-09-12T01:23:22.055Z,5.10
2018-09-12T01:24:20.559Z,5.00
2018-09-12T01:26:14.999Z,4.80
2018-09-12T01:27:15.010Z,4.20
2018-09-12T01:29:10.975Z,4.20
2018-09-12T01:30:10.938Z,4.50
2018-09-12T01:32:06.916Z,5.50
2018-09-12T01:33:06.905Z,6.10
2018-09-12T01:35:01.919Z,4.20
2018-09-12T01:36:01.354Z,4.70
2018-09-12T01:39:33.136Z,4.40
2018-09-12T01:40:32.609Z,6.70
2018-09-12T01:42:27.564Z,5.00
2018-09-12T01:43:27.046Z,6.40
2018-09-12T01:45:23.033Z,5.80
2018-09-12T01:46:22.999Z,4.80
2018-09-12T01:48:17.449Z,4.10
2018-09-12T01:49:17.967Z,5.70
2018-09-12T01:51:13.423Z,5.20
2018-09-12T01:52:11.885Z,5.70
2018-09-12T01:54:06.337Z,5.00
2018-09-12T01:55:06.843Z,6.10
2018-09-12T01:57:01.304Z,5.80
2018-09-12T01:58:00.764Z,4.80
2018-09-12T01:59:58.745Z,5.20
2018-09-12T02:00:58.725Z,4.80
2018-09-12T02:02:53.201Z,5.50
2018-09-12T02:03:53.184Z,5.70
2018-09-12T02:05:51.639Z,6.50
2018-09-12T02:06:51.116Z,7.10
2018-09-12T02:08:47.080Z,5.50
2018-09-12T02:09:47.047Z,4.30
2018-09-12T02:11:43.497Z,6.40
2018-09-12T02:12:43.497Z,7.90
2018-09-12T02:14:39.435Z,4.60
2018-09-12T02:15:38.924Z,4.90
2018-09-12T02:17:35.868Z,5.20
2018-09-12T02:18:34.857Z,7.50
2018-09-12T02:20:30.845Z,5.60
2018-09-12T02:21:30.805Z,6.00
2018-09-12T02:23:25.773Z,4.70
2018-09-12T02:24:25.247Z,4.90
2018-09-12T02:26:20.199Z,6.30
2018-09-12T02:27:19.687Z,6.60
2018-09-12T02:29:17.663Z,4.70
2018-09-12T02:30:17.136Z,4.40
2018-09-12T02:32:11.606Z,4.90
2018-09-12T02:33:11.568Z,5.60
2018-09-12T02:35:07.491Z,4.60
2018-09-12T02:36:08.034Z,4.50
2018-09-12T02:38:03.498Z,5.30
2018-09-12T02:39:03.967Z,5.10
2018-09-12T02:40:58.419Z,5.50
2018-09-12T02:41:58.438Z,4.40
2018-09-12T02:43:53.828Z,5.00
2018-09-12T02:44:53.814Z,5.10
2018-09-12T02:46:49.762Z,7.10
2018-09-12T02:47:50.259Z,5.50
2018-09-12T02:49:45.708Z,5.10
2018-09-12T02:50:44.198Z,6.70
2018-09-12T02:52:39.169Z,6.60
2018-09-12T02:53:38.170Z,7.70
2018-09-12T02:55:33.628Z,6.40
2018-09-12T02:56:33.601Z,5.50
2018-09-12T02:58:28.054Z,5.70
2018-09-12T02:59:28.059Z,5.50
2018-09-12T03:01:20.483Z,6.70
2018-09-12T03:02:20.484Z,5.10
2018-09-12T03:04:16.453Z,6.20
2018-09-12T03:05:16.414Z,6.90
2018-09-12T03:07:15.390Z,5.50
2018-09-12T03:08:14.360Z,5.10
2018-09-12T03:10:11.325Z,6.60
2018-09-12T03:11:10.332Z,5.70
2018-09-12T03:13:04.767Z,6.20
2018-09-12T03:14:05.277Z,6.50
2018-09-12T03:16:00.742Z,7.80
2018-09-12T03:17:00.723Z,7.10
2018-09-12T03:18:55.185Z,6.10
2018-09-12T03:19:55.696Z,8.20
2018-09-12T03:21:51.670Z,5.80
2018-09-12T03:22:51.162Z,6.60
2018-09-12T03:24:45.597Z,7.00
2018-09-12T03:25:46.181Z,7.90
2018-09-12T03:27:41.567Z,4.50
2018-09-12T03:28:42.062Z,6.10
2018-09-12T03:30:41.994Z,6.00
2018-09-12T03:31:40.074Z,5.50
2018-09-12T03:33:35.524Z,6.50
2018-09-12T03:34:34.516Z,6.80
2018-09-12T03:36:30.453Z,8.20
2018-09-12T03:37:30.467Z,7.00
2018-09-12T03:39:27.409Z,6.10
2018-09-12T03:40:27.414Z,5.30
2018-09-12T03:42:21.065Z,5.20
2018-09-12T03:43:21.026Z,5.60
2018-09-12T03:45:16.983Z,7.70
2018-09-12T03:46:16.948Z,7.30
2018-09-12T03:48:13.433Z,5.60
2018-09-12T03:49:13.411Z,5.20
2018-09-12T03:51:07.282Z,5.80
2018-09-12T03:52:07.293Z,5.10
2018-09-12T03:54:03.398Z,4.90
2018-09-12T03:55:03.752Z,7.40
2018-09-12T03:56:57.789Z,5.30
2018-09-12T03:57:58.698Z,5.20
2018-09-12T03:59:54.752Z,5.00
2018-09-12T04:00:53.736Z,5.20
2018-09-12T04:02:49.716Z,6.50
2018-09-12T04:03:49.670Z,5.30
2018-09-12T04:05:46.643Z,7.70
2018-09-12T04:06:47.119Z,5.10
2018-09-12T04:08:41.588Z,4.90
2018-09-12T04:09:41.562Z,6.70
2018-09-12T04:11:37.017Z,5.40
2018-09-12T04:12:36.533Z,6.20
2018-09-12T04:14:32.932Z,5.00
2018-09-12T04:15:31.925Z,8.90
2018-09-12T04:17:27.884Z,6.20
2018-09-12T04:18:27.877Z,7.50
2018-09-12T04:20:22.345Z,6.10
2018-09-12T04:21:22.334Z,6.00
2018-09-12T04:23:18.285Z,5.50
2018-09-12T04:24:19.240Z,5.40
2018-09-12T04:26:12.740Z,6.60
2018-09-12T04:27:12.730Z,5.60
2018-09-12T04:29:07.197Z,7.40
2018-09-12T04:30:06.184Z,5.00
2018-09-12T04:32:02.173Z,7.60
2018-09-12T04:33:02.137Z,8.20
2018-09-12T04:34:57.102Z,6.90
2018-09-12T04:35:56.584Z,4.80
2018-09-12T04:37:52.550Z,5.90
2018-09-12T04:38:52.524Z,7.00
2018-09-12T04:40:48.974Z,5.10
2018-09-12T04:41:48.436Z,5.70
2018-09-12T04:43:44.912Z,8.20
2018-09-12T04:44:44.371Z,6.40
2018-09-12T04:46:40.358Z,5.00
2018-09-12T04:47:40.312Z,6.80
2018-09-12T04:49:35.784Z,7.30
2018-09-12T04:50:35.781Z,6.20
2018-09-12T04:52:29.935Z,6.60
2018-09-12T04:53:29.426Z,6.60
2018-09-12T04:55:26.404Z,8.00
2018-09-12T04:56:26.372Z,6.50
2018-09-12T04:58:21.384Z,10.90
2018-09-12T04:59:21.167Z,7.30
2018-09-12T05:01:19.128Z,6.10
2018-09-12T05:02:17.074Z,7.80
2018-09-12T05:04:12.025Z,7.00
2018-09-12T05:05:11.501Z,7.60
2018-09-12T05:07:10.391Z,6.30
2018-09-12T05:08:09.788Z,8.40
2018-09-12T05:10:05.283Z,8.00
2018-09-12T05:11:04.251Z,7.40
2018-09-12T05:13:00.213Z,5.80
2018-09-12T05:14:00.171Z,6.20
2018-09-12T05:16:01.078Z,6.20
2018-09-12T05:16:57.692Z,6.60
2018-09-12T05:18:52.730Z,8.60
2018-09-12T05:19:53.584Z,9.10
2018-09-12T05:21:47.704Z,8.40
2018-09-12T05:22:47.247Z,7.70
2018-09-12T05:24:43.962Z,7.50
2018-09-12T05:25:43.944Z,6.20
2018-09-12T05:27:41.450Z,8.10
2018-09-12T05:28:40.090Z,9.40
2018-09-12T05:30:37.409Z,7.10
2018-09-12T05:32:50.435Z,8.10
2018-09-12T05:33:53.452Z,6.20
2018-09-12T05:35:47.804Z,11.40
2018-09-12T05:36:44.851Z,8.30
2018-09-12T05:38:40.804Z,8.60
2018-09-12T05:41:01.906Z,8.40
2018-09-12T05:41:57.238Z,8.90
2018-09-12T05:43:54.282Z,10.20
2018-09-12T05:45:06.296Z,10.10
2018-09-12T05:46:58.357Z,10.50
2018-09-12T05:47:59.257Z,5.70
2018-09-12T05:49:56.344Z,6.70
2018-09-12T05:50:54.622Z,6.70
2018-09-12T05:53:27.877Z,9.80
2018-09-12T05:54:28.358Z,10.20
2018-09-12T06:07:31.941Z,8.20
2018-09-12T06:08:31.192Z,9.70
2018-09-12T06:10:30.219Z,10.90
2018-09-12T06:11:29.415Z,9.40
2018-09-12T06:13:42.393Z,9.10
2018-09-12T06:14:25.373Z,11.20
2018-09-12T06:16:22.243Z,10.20
2018-09-12T06:17:17.674Z,10.30
2018-09-12T06:19:15.837Z,11.20
2018-09-12T06:20:14.849Z,9.40
2018-09-12T06:22:11.489Z,11.00
2018-09-12T06:24:28.012Z,8.70
2018-09-12T06:25:27.002Z,10.30
2018-09-12T06:27:23.951Z,10.40
2018-09-12T06:28:21.328Z,8.60
2018-09-12T06:30:15.239Z,7.80
2018-09-12T06:31:14.936Z,9.70
2018-09-12T06:33:09.380Z,8.60
2018-09-12T06:34:09.377Z,7.30
2018-09-12T06:36:22.466Z,7.20
2018-09-12T06:38:37.382Z,7.10
2018-09-12T06:39:23.469Z,7.30
2018-09-12T06:41:19.396Z,9.80
2018-09-12T06:42:19.300Z,15.40
2018-09-12T06:44:15.263Z,7.80
2018-09-12T06:45:15.233Z,8.40
2018-09-12T06:47:11.208Z,7.40
2018-09-12T06:48:11.706Z,8.30
2018-09-12T06:50:05.634Z,7.90
2018-09-12T06:51:06.560Z,10.10
2018-09-12T06:52:59.104Z,7.20
2018-09-12T06:53:59.092Z,8.40
2018-09-12T06:55:53.569Z,8.80
2018-09-12T06:56:53.556Z,8.40
2018-09-12T06:58:49.540Z,7.50
2018-09-12T06:59:49.489Z,10.30
2018-09-12T07:01:43.949Z,11.00
2018-09-12T07:02:44.456Z,9.00
2018-09-12T07:04:39.923Z,9.00
2018-09-12T07:05:38.396Z,9.80
2018-09-12T07:07:33.432Z,10.30
2018-09-12T07:08:32.839Z,8.60
2018-09-12T07:10:27.791Z,9.90
2018-09-12T07:11:27.301Z,9.60
2018-09-12T07:13:22.256Z,8.80
2018-09-12T07:14:20.949Z,8.50
2018-09-12T07:16:17.294Z,10.00
2018-09-12T07:17:17.802Z,8.80
2018-09-12T07:19:11.780Z,8.90
2018-09-12T07:20:11.251Z,9.00
2018-09-12T07:22:07.221Z,9.70
2018-09-12T07:23:07.194Z,8.30
2018-09-12T07:25:00.670Z,7.50
2018-09-12T07:26:01.186Z,9.30
2018-09-12T07:27:56.594Z,9.00
2018-09-12T07:28:57.107Z,9.50
2018-09-12T07:30:53.051Z,8.90
2018-09-12T07:31:52.505Z,6.90
2018-09-12T07:33:48.477Z,11.30
2018-09-12T07:34:48.464Z,8.70
2018-09-12T07:36:43.424Z,9.00
2018-09-12T07:37:42.919Z,8.20
2018-09-12T07:39:36.371Z,8.20
2018-09-12T07:40:36.378Z,7.80
2018-09-12T07:42:32.828Z,11.10
2018-09-12T07:43:32.333Z,8.40
2018-09-12T07:45:28.310Z,7.90
2018-09-12T07:46:28.294Z,7.80
2018-09-12T07:48:24.256Z,6.10
2018-09-12T07:49:25.746Z,6.70
2018-09-12T07:51:22.696Z,8.10
2018-09-12T07:52:22.330Z,7.00
2018-09-12T07:54:18.299Z,10.50
2018-09-12T07:55:18.294Z,6.40
2018-09-12T07:57:14.751Z,12.00
2018-09-12T07:58:14.751Z,13.50
2018-09-12T08:00:10.268Z,6.30
2018-09-12T08:01:10.699Z,7.70
2018-09-12T08:03:06.134Z,9.00
2018-09-12T08:04:04.635Z,9.20
2018-09-12T08:06:02.122Z,9.10
2018-09-12T08:07:02.116Z,10.40
2018-09-12T08:08:57.364Z,7.60
2018-09-12T08:09:57.884Z,5.70
2018-09-12T08:11:54.334Z,6.20
2018-09-12T08:12:53.330Z,4.60
2018-09-12T08:14:46.803Z,4.10
2018-09-12T08:15:46.803Z,4.20
2018-09-12T08:17:42.770Z,4.90
2018-09-12T08:18:42.741Z,4.30
2018-09-12T08:20:39.222Z,4.60
2018-09-12T08:21:38.733Z,5.20
2018-09-12T08:23:35.188Z,4.40
2018-09-12T08:24:34.677Z,4.00
2018-09-12T08:26:28.635Z,4.90
2018-09-12T08:27:28.656Z,4.90
2018-09-12T08:29:25.091Z,4.10
2018-09-12T08:30:24.088Z,4.80
2018-09-12T08:32:21.547Z,6.50
2018-09-12T08:33:21.003Z,4.10
2018-09-12T08:35:17.003Z,4.80
2018-09-12T08:36:16.002Z,5.40
2018-09-12T08:38:13.421Z,4.40
2018-09-12T08:39:12.911Z,6.10
2018-09-12T08:41:08.833Z,6.70
2018-09-12T08:42:08.917Z,7.50
2018-09-12T08:44:04.798Z,5.60
2018-09-12T08:45:04.776Z,5.30
2018-09-12T08:46:58.743Z,3.90
2018-09-12T08:47:58.217Z,4.10
2018-09-12T08:49:55.190Z,3.90
2018-09-12T08:50:54.169Z,4.20
2018-09-12T08:52:48.675Z,4.60
2018-09-12T08:53:49.140Z,4.40
2018-09-12T08:55:46.096Z,4.70
2018-09-12T08:56:45.609Z,3.90
2018-09-12T08:58:41.059Z,5.80
2018-09-12T08:59:40.640Z,4.40
2018-09-12T09:01:36.044Z,5.30
2018-09-12T09:02:34.979Z,4.90
2018-09-12T09:04:31.432Z,4.80
2018-09-12T09:05:31.423Z,5.90
2018-09-12T09:07:26.860Z,3.90
2018-09-12T09:08:27.791Z,4.50
2018-09-12T09:10:23.367Z,6.40
2018-09-12T09:11:23.038Z,6.70
2018-09-12T09:13:18.786Z,4.60
2018-09-12T09:14:18.772Z,4.90
2018-09-12T09:16:13.246Z,4.70
2018-09-12T09:17:13.371Z,5.10
2018-09-12T09:19:07.691Z,5.90
2018-09-12T09:20:07.707Z,4.80
2018-09-12T09:22:05.166Z,5.40
2018-09-12T09:23:04.153Z,4.90
2018-09-12T09:24:59.625Z,5.00
2018-09-12T09:25:59.610Z,5.00
2018-09-12T09:27:54.577Z,5.10
2018-09-12T09:28:54.081Z,5.80
2018-09-12T09:30:52.070Z,4.80
2018-09-12T09:31:51.987Z,4.70
2018-09-12T09:33:47.940Z,6.00
2018-09-12T09:34:46.475Z,6.90
2018-09-12T09:36:41.396Z,5.60
2018-09-12T09:37:40.894Z,6.10
2018-09-12T09:39:36.368Z,4.90
2018-09-12T09:40:36.354Z,4.80
2018-09-12T09:42:33.808Z,6.60
2018-09-12T09:43:31.854Z,5.90
2018-09-12T09:45:24.842Z,5.20
2018-09-12T09:46:24.812Z,4.60
2018-09-12T09:48:22.345Z,4.80
2018-09-12T09:49:20.756Z,5.10
2018-09-12T09:51:13.777Z,4.70
2018-09-12T09:52:13.764Z,4.40
2018-09-12T09:54:08.222Z,5.50
2018-09-12T09:55:08.238Z,4.90
2018-09-12T09:57:02.196Z,4.80
2018-09-12T09:58:02.214Z,5.50
2018-09-12T10:00:01.135Z,5.70
2018-09-12T10:00:58.142Z,5.80
2018-09-12T10:02:56.709Z,5.70
2018-09-12T10:03:53.945Z,6.00
2018-09-12T10:05:49.290Z,5.10
2018-09-12T10:06:49.252Z,5.30
2018-09-12T10:08:44.174Z,5.10
2018-09-12T10:09:43.647Z,4.80
2018-09-12T10:11:37.626Z,4.80
2018-09-12T10:12:38.233Z,4.70
2018-09-12T10:14:34.721Z,4.80
2018-09-12T10:15:34.575Z,4.80
2018-09-12T10:17:28.426Z,5.50
2018-09-12T10:18:29.423Z,5.70
2018-09-12T10:20:23.413Z,4.60
2018-09-12T10:21:22.887Z,5.20
2018-09-12T10:23:17.349Z,4.80
2018-09-12T10:24:16.427Z,4.90
2018-09-12T10:26:12.857Z,4.80
2018-09-12T10:27:12.326Z,4.60
2018-09-12T10:29:06.293Z,7.90
2018-09-12T10:30:05.783Z,4.80
2018-09-12T10:32:04.269Z,5.10
2018-09-12T10:33:03.914Z,4.50
2018-09-12T10:35:01.381Z,4.60
2018-09-12T10:35:59.873Z,4.90
2018-09-12T10:37:57.324Z,5.40
2018-09-12T10:38:55.838Z,5.00
2018-09-12T10:40:51.285Z,6.00
2018-09-12T10:41:50.790Z,5.40
2018-09-12T10:43:44.695Z,7.20
2018-09-12T10:44:44.737Z,5.10
2018-09-12T10:46:39.200Z,8.10
2018-09-12T10:47:41.213Z,6.10
2018-09-12T10:49:35.130Z,4.90
2018-09-12T10:50:35.139Z,5.70
2018-09-12T10:52:28.635Z,5.60
2018-09-12T10:53:28.626Z,4.80
2018-09-12T10:55:24.624Z,6.80
2018-09-12T10:56:24.601Z,7.40
2018-09-12T10:58:20.580Z,7.60
2018-09-12T10:59:20.575Z,6.60
2018-09-12T11:01:14.993Z,4.90
2018-09-12T11:02:14.999Z,4.60
2018-09-12T11:04:11.564Z,4.80
2018-09-12T11:05:11.360Z,5.60
2018-09-12T11:07:11.569Z,5.90
2018-09-12T11:08:05.327Z,5.30
2018-09-12T11:10:00.846Z,5.20
2018-09-12T11:11:00.829Z,4.60
2018-09-12T11:12:56.761Z,6.50
2018-09-12T11:13:56.762Z,6.60
2018-09-12T11:15:51.226Z,7.00
2018-09-12T11:16:51.229Z,6.40
2018-09-12T11:18:45.684Z,5.50
2018-09-12T11:19:45.750Z,5.00
2018-09-12T11:21:42.157Z,5.60
2018-09-12T11:22:41.626Z,5.60
2018-09-12T11:24:36.084Z,5.50
2018-09-12T11:25:36.083Z,6.00
2018-09-12T11:27:32.058Z,5.80
2018-09-12T11:28:32.435Z,6.90
2018-09-12T11:30:27.006Z,6.00
2018-09-12T11:31:27.010Z,5.80
2018-09-12T11:33:22.481Z,5.00
2018-09-12T11:34:22.515Z,6.20
2018-09-12T11:36:16.920Z,5.20
2018-09-12T11:37:16.931Z,4.90
2018-09-12T11:39:11.910Z,6.10
2018-09-12T11:40:11.506Z,5.60
2018-09-12T11:42:07.426Z,5.80
2018-09-12T11:43:07.912Z,6.10
2018-09-12T11:45:01.867Z,5.40
2018-09-12T11:46:01.848Z,5.20
2018-09-12T11:47:57.830Z,7.10
2018-09-12T11:48:57.846Z,5.30
2018-09-12T11:50:52.284Z,5.40
2018-09-12T11:51:52.767Z,6.00
2018-09-12T11:53:46.709Z,5.90
2018-09-12T11:54:47.214Z,5.30
2018-09-12T11:56:42.660Z,5.00
2018-09-12T11:57:42.678Z,5.30
2018-09-12T11:59:38.620Z,6.40
2018-09-12T12:00:38.629Z,5.90
2018-09-12T12:02:37.089Z,6.40
2018-09-12T12:03:36.581Z,5.40
2018-09-12T12:05:34.063Z,6.00
2018-09-12T12:06:33.045Z,5.60
2018-09-12T12:08:28.525Z,6.10
2018-09-12T12:09:28.504Z,6.80
2018-09-12T12:11:23.967Z,6.30
2018-09-12T12:12:22.935Z,6.20
2018-09-12T12:14:21.925Z,7.80
2018-09-12T12:15:20.183Z,6.90
2018-09-12T12:17:12.940Z,5.90
2018-09-12T12:18:12.993Z,5.90
2018-09-12T12:20:12.578Z,5.00
2018-09-12T12:21:07.847Z,5.30
2018-09-12T12:23:01.386Z,6.00
2018-09-12T12:24:01.462Z,6.40
2018-09-12T12:25:55.329Z,6.40
2018-09-12T12:26:55.334Z,6.10
2018-09-12T12:28:50.879Z,6.50
2018-09-12T12:29:49.811Z,6.40
2018-09-12T12:31:44.360Z,8.00
2018-09-12T12:32:44.322Z,6.50
2018-09-12T12:34:41.758Z,23.20
2018-09-12T12:36:55.210Z,6.50
2018-09-12T12:37:55.187Z,6.30
2018-09-12T12:39:50.636Z,5.60
2018-09-12T12:40:49.974Z,6.60
2018-09-12T12:42:44.466Z,5.70
2018-09-12T12:43:45.428Z,5.80
2018-09-12T12:45:40.926Z,6.10
2018-09-12T12:46:40.422Z,8.30
2018-09-12T12:48:37.308Z,5.70
2018-09-12T12:49:37.391Z,6.70
2018-09-12T12:51:33.996Z,6.20
2018-09-12T12:52:34.375Z,6.90
2018-09-12T12:54:34.576Z,5.30
2018-09-12T12:55:29.939Z,5.00
2018-09-12T12:57:37.148Z,5.60
2018-09-12T12:58:27.757Z,5.10
2018-09-12T13:00:23.371Z,5.90
2018-09-12T13:01:22.366Z,5.60
2018-09-12T13:03:17.328Z,6.20
2018-09-12T13:04:16.805Z,7.50
2018-09-12T13:06:13.286Z,6.40
2018-09-12T13:07:13.709Z,8.60
2018-09-12T13:09:07.728Z,5.00
2018-09-12T13:10:07.257Z,5.20
2018-09-12T13:12:03.785Z,4.90
2018-09-12T13:13:03.207Z,5.80
2018-09-12T13:14:57.643Z,5.50
2018-09-12T13:15:57.657Z,5.50
2018-09-12T13:17:53.653Z,5.20
2018-09-12T13:18:54.630Z,5.60
2018-09-12T13:20:50.140Z,4.80
2018-09-12T13:21:50.339Z,5.60
2018-09-12T13:23:59.581Z,5.90
2018-09-12T13:24:58.106Z,6.30
2018-09-12T13:26:52.560Z,5.50
2018-09-12T13:27:52.625Z,5.40
2018-09-12T13:29:48.541Z,5.90
2018-09-12T13:30:49.536Z,9.50
2018-09-12T13:32:44.526Z,5.20
2018-09-12T13:33:44.502Z,5.40
2018-09-12T13:35:42.480Z,5.10
2018-09-12T13:36:42.453Z,5.70
2018-09-12T13:38:40.450Z,4.90
2018-09-12T13:39:40.418Z,5.50
2018-09-12T13:41:36.369Z,5.40
2018-09-12T13:42:36.379Z,5.60
2018-09-12T13:44:34.425Z,5.40
2018-09-12T13:45:33.225Z,7.50
2018-09-12T13:47:29.249Z,6.00
2018-09-12T13:48:29.227Z,5.70
2018-09-12T13:50:25.170Z,5.80
2018-09-12T13:51:25.201Z,5.30
2018-09-12T13:53:21.225Z,6.30
2018-09-12T13:54:21.667Z,6.20
2018-09-12T13:56:21.604Z,5.50
2018-09-12T13:57:22.110Z,6.30
2018-09-12T13:59:19.089Z,6.70
2018-09-12T14:00:18.087Z,5.90
2018-09-12T14:02:14.534Z,6.90
2018-09-12T14:03:13.521Z,6.40
2018-09-12T14:05:10.497Z,6.20
2018-09-12T14:06:10.501Z,5.80
2018-09-12T14:08:05.454Z,6.20
2018-09-12T14:09:05.468Z,5.40
2018-09-12T14:11:01.444Z,5.90
2018-09-12T14:12:01.406Z,5.50
2018-09-12T14:13:59.368Z,5.70
2018-09-12T14:14:59.921Z,5.30
2018-09-12T14:16:57.843Z,6.10
2018-09-12T14:17:57.317Z,6.50
2018-09-12T14:19:56.799Z,7.30
2018-09-12T14:20:55.292Z,6.40
2018-09-12T14:22:51.331Z,6.20
2018-09-12T14:23:51.249Z,6.70
2018-09-12T14:25:48.211Z,7.60
2018-09-12T14:26:47.214Z,8.70
2018-09-12T14:28:45.252Z,6.60
2018-09-12T14:29:46.178Z,7.20
2018-09-12T14:31:42.025Z,6.70
2018-09-12T14:32:42.682Z,6.70
2018-09-12T14:34:40.649Z,7.00
2018-09-12T14:35:38.007Z,7.00
2018-09-12T14:37:33.969Z,7.70
2018-09-12T14:38:33.951Z,7.60
2018-09-12T14:40:31.929Z,8.50
2018-09-12T14:41:30.074Z,9.00
2018-09-12T14:43:28.497Z,9.00
2018-09-12T14:44:28.188Z,9.10
2018-09-12T14:46:36.665Z,9.70
2018-09-12T14:47:36.691Z,10.00
2018-09-12T14:49:33.109Z,9.10
2018-09-12T14:50:32.598Z,9.20
2018-09-12T14:52:30.721Z,10.70
2018-09-12T14:53:30.724Z,11.30
2018-09-12T14:55:26.785Z,11.50
2018-09-12T14:56:26.756Z,11.50
2018-09-12T14:58:23.225Z,10.90
2018-09-12T15:00:44.041Z,11.10
2018-09-12T15:01:44.281Z,11.00
2018-09-12T15:03:40.050Z,13.10
2018-09-12T15:06:01.150Z,12.80
2018-09-12T15:07:00.108Z,9.70
2018-09-12T15:08:59.013Z,10.80
2018-09-12T15:09:58.971Z,9.90
2018-09-12T15:12:00.464Z,10.00
2018-09-12T15:14:55.659Z,12.10
2018-09-12T15:15:50.991Z,11.20
2018-09-12T15:17:54.842Z,10.10
2018-09-12T15:18:52.516Z,11.10
2018-09-12T15:20:54.813Z,10.30
2018-09-12T15:21:54.212Z,12.80
2018-09-12T15:23:54.340Z,11.20
2018-09-12T15:24:56.178Z,10.20
2018-09-12T15:27:11.366Z,13.00
2018-09-12T15:28:22.437Z,14.50
2018-09-12T15:30:09.104Z,12.30
2018-09-12T15:31:09.453Z,13.00
2018-09-12T15:33:19.137Z,16.00
2018-09-12T15:34:18.723Z,13.40
2018-09-12T15:36:39.281Z,12.40
2018-09-12T15:37:37.493Z,12.80
2018-09-12T15:39:47.372Z,16.30
2018-09-12T15:40:38.332Z,15.80
2018-09-12T15:42:48.198Z,15.30
2018-09-12T15:43:48.827Z,13.10
2018-09-12T15:45:51.783Z,13.60
2018-09-12T15:46:50.218Z,13.70
2018-09-12T15:48:47.088Z,16.90
2018-09-12T15:49:46.190Z,13.80
2018-09-12T15:51:44.752Z,18.00
2018-09-12T15:52:45.156Z,17.30
2018-09-12T15:54:46.583Z,19.70
2018-09-12T15:55:46.935Z,19.40
2018-09-12T15:57:48.968Z,18.30
2018-09-12T15:58:47.390Z,27.70
2018-09-12T16:00:49.003Z,18.80
2018-09-12T16:01:47.051Z,19.80
2018-09-12T16:04:02.856Z,23.30
2018-09-12T16:04:50.383Z,24.00
2018-09-12T16:07:07.050Z,21.40
2018-09-12T16:08:06.713Z,19.10
2018-09-12T16:10:12.993Z,19.60
2018-09-12T16:11:10.152Z,21.70
2018-09-12T16:13:11.993Z,23.00
2018-09-12T16:14:10.693Z,18.80
2018-09-12T16:16:09.086Z,16.80
2018-09-12T16:17:08.396Z,17.60
2018-09-12T16:19:14.482Z,19.20
2018-09-12T16:20:12.937Z,17.30
2018-09-12T16:22:09.137Z,20.30
2018-09-12T16:23:09.136Z,18.80
2018-09-12T16:25:09.067Z,18.60
2018-09-12T16:26:09.039Z,20.50
2018-09-12T16:28:09.929Z,18.90
2018-09-12T16:29:09.620Z,19.60
2018-09-12T16:31:06.960Z,19.30
2018-09-12T16:32:07.465Z,20.40
2018-09-12T16:34:09.302Z,20.20
2018-09-12T16:35:07.991Z,19.60
2018-09-12T16:37:07.826Z,20.20
2018-09-12T16:38:08.350Z,21.60
2018-09-12T16:40:08.771Z,22.20
2018-09-12T16:41:08.821Z,24.00
2018-09-12T16:43:12.811Z,26.90
2018-09-12T16:44:14.806Z,27.70
2018-09-12T16:46:13.222Z,24.60
2018-09-12T16:47:13.195Z,24.30
2018-09-12T16:49:12.209Z,25.90
2018-09-12T16:50:11.305Z,24.50
2018-09-12T16:52:09.769Z,24.70
2018-09-12T16:53:09.800Z,24.10
2018-09-12T16:55:05.286Z,25.00
2018-09-12T16:56:05.229Z,24.10
2018-09-12T16:58:05.691Z,26.20
2018-09-12T16:59:07.154Z,25.20
2018-09-12T17:01:02.162Z,26.40
2018-09-12T17:02:01.617Z,28.60
2018-09-12T17:03:58.038Z,26.40
2018-09-12T17:04:57.539Z,27.00
2018-09-12T17:06:56.004Z,27.50
2018-09-12T17:07:55.504Z,27.00
2018-09-12T17:09:56.454Z,29.00
2018-09-12T17:10:56.444Z,29.20
2018-09-12T17:12:51.967Z,27.70
2018-09-12T17:13:52.894Z,26.80
2018-09-12T17:15:52.347Z,27.00
2018-09-12T17:16:52.438Z,26.90
2018-09-12T17:18:48.832Z,27.30
2018-09-12T17:19:48.313Z,27.40
2018-09-12T17:21:46.444Z,25.90
2018-09-12T17:22:46.422Z,23.20
2018-09-12T17:24:44.581Z,25.10
2018-09-12T17:25:44.573Z,24.40
2018-09-12T17:27:42.517Z,24.50
2018-09-12T17:28:42.490Z,25.00
2018-09-12T17:30:38.468Z,23.00
2018-09-12T17:31:38.484Z,22.10
2018-09-12T17:33:39.284Z,22.90
2018-09-12T17:34:36.432Z,25.10
2018-09-12T17:36:34.499Z,22.10
2018-09-12T17:37:34.385Z,21.00
2018-09-12T17:39:32.830Z,22.10
2018-09-12T17:40:32.311Z,20.40
2018-09-12T17:42:30.281Z,17.90
2018-09-12T17:43:30.773Z,18.80
2018-09-12T17:45:31.252Z,15.60
2018-09-12T17:46:31.931Z,20.80
2018-09-12T17:48:29.266Z,14.90
2018-09-12T17:49:28.669Z,16.20
2018-09-12T17:51:27.615Z,12.30
2018-09-12T17:52:26.107Z,14.30
2018-09-12T17:54:23.457Z,13.20
2018-09-12T17:59:13.481Z,11.50
2018-09-12T18:01:13.853Z,12.00
2018-09-12T18:04:14.829Z,9.50
2018-09-12T18:05:14.812Z,8.70
2018-09-12T18:07:50.347Z,11.10
2018-09-12T18:08:50.280Z,10.20
2018-09-12T18:10:46.624Z,9.10
2018-09-12T18:13:03.004Z,8.50
2018-09-12T18:14:03.023Z,7.50
2018-09-12T18:16:02.829Z,9.10
2018-09-12T18:17:01.938Z,7.80
2018-09-12T18:19:10.471Z,9.00
2018-09-12T18:22:37.920Z,7.40
2018-09-12T18:23:33.879Z,7.70
2018-09-12T18:25:30.844Z,7.10
2018-09-12T18:26:30.838Z,8.10
2018-09-12T18:28:27.293Z,5.10
2018-09-12T18:29:26.785Z,4.60
2018-09-12T18:31:24.260Z,7.00
2018-09-12T18:32:23.238Z,4.70
2018-09-12T18:34:18.719Z,5.20
2018-09-12T18:35:18.657Z,4.00
2018-09-12T18:37:14.600Z,5.00
2018-09-12T18:38:14.608Z,5.40
2018-09-12T18:40:11.597Z,5.10
2018-09-12T18:41:12.069Z,5.40
2018-09-12T18:43:07.468Z,3.90
2018-09-12T18:44:07.358Z,4.00
2018-09-12T18:46:04.313Z,6.40
2018-09-12T18:47:03.335Z,5.60
2018-09-12T18:48:59.269Z,3.10
2018-09-12T18:49:59.297Z,3.00
2018-09-12T18:51:55.241Z,2.80
2018-09-12T18:52:55.214Z,3.10
2018-09-12T18:54:53.682Z,4.10
2018-09-12T18:55:53.185Z,4.00
2018-09-12T18:57:51.083Z,3.20
2018-09-12T18:58:51.120Z,3.20
2018-09-12T19:00:47.043Z,5.40
2018-09-12T19:01:47.564Z,3.30
2018-09-12T19:03:43.913Z,3.20
2018-09-12T19:04:43.495Z,2.90
2018-09-12T19:06:40.027Z,2.80
2018-09-12T19:07:38.905Z,3.00
2018-09-12T19:09:35.374Z,3.10
2018-09-12T19:10:34.857Z,3.00
2018-09-12T19:12:31.820Z,2.70
2018-09-12T19:13:30.806Z,3.20
2018-09-12T19:15:27.785Z,3.70
2018-09-12T19:16:26.748Z,4.10
2018-09-12T19:18:23.725Z,3.50
2018-09-12T19:19:22.679Z,3.10
2018-09-12T19:21:19.185Z,2.50
2018-09-12T19:22:19.566Z,3.30
2018-09-12T19:24:16.547Z,2.90
2018-09-12T19:25:16.549Z,3.80
2018-09-12T19:27:14.949Z,2.70
2018-09-12T19:28:12.516Z,3.80
2018-09-12T19:30:08.946Z,2.90
2018-09-12T19:31:08.421Z,3.00
2018-09-12T19:33:04.890Z,2.80
2018-09-12T19:34:05.889Z,2.90
2018-09-12T19:36:00.385Z,2.90
2018-09-12T19:38:28.578Z,2.90
2018-09-12T19:39:28.605Z,3.10
2018-09-12T19:41:24.559Z,2.70
2018-09-12T19:42:25.025Z,2.90
2018-09-12T19:44:21.943Z,3.50
2018-09-12T19:47:19.392Z,3.60
2018-09-12T19:48:18.553Z,3.70
2018-09-12T19:50:15.006Z,3.10
2018-09-12T19:51:14.999Z,3.50
2018-09-12T19:53:10.970Z,3.50
2018-09-12T19:54:10.965Z,3.20
2018-09-12T19:56:06.881Z,3.60
2018-09-12T19:57:06.362Z,2.90
2018-09-12T19:59:17.373Z,3.50
2018-09-12T20:00:17.031Z,3.30
2018-09-12T20:02:13.453Z,3.90
2018-09-12T20:03:13.449Z,3.80
2018-09-12T20:05:10.399Z,4.50